Flight Track Log - Related Links

Times and Time Zones

All times are in EDT time to prevent confusion due to time zone crossing. See the DAL110 flight status page for this flight to view local times or setup timezone preferences in your user account.

Time Position Orientation Groundspeed Altitude Reporting Facility
EDT Latitude Longitude Course Direction KTS MPH feet Rate Location/Type
Thu 09:00:35 AM 33.6500 -84.3833 270° West 180 207 2,600  Level Atlanta TRACON
Thu 09:01:35 AM 33.6667 -84.3167 73° East 259 298 4,200 2,256 Climbing Atlanta TRACON
Thu 09:02:40 AM 33.7500 -84.2833 18° North 303 349 7,300 2,469 Climbing Atlanta TRACON
Thu 09:03:00 AM 33.8001 -84.4040 270° West  Level FlightAware Approximate
Thu 09:04:00 AM 33.8000 -84.5551 270° West  Level FlightAware Approximate
Thu 09:04:30 AM 33.8103 -84.4014 302° West 283 326 11,400  Level Atlanta Center
Thu 09:05:00 AM 33.8001 -84.7063 270° West  Level FlightAware Approximate
Thu 09:05:30 AM 33.8100 -84.5289 270° West 320 368 13,200  Level Atlanta Center
Thu 09:06:30 AM 33.8136 -84.6364 272° West 353 406 15,700 2,350 Climbing Atlanta Center
Thu 09:07:30 AM 33.8089 -84.7539 267° West 353 406 17,900 2,050 Climbing Atlanta Center
Thu 09:08:30 AM 33.8058 -84.8939 269° West 365 420 19,800 1,700 Climbing Atlanta Center
Thu 09:09:30 AM 33.7925 -85.0236 263° West 385 443 21,300 1,450 Climbing Atlanta Center
Thu 09:10:30 AM 33.7747 -85.1558 261° West 396 456 22,700 1,250 Climbing Atlanta Center
Thu 09:11:30 AM 33.7756 -85.2808 270° West 403 464 23,800 1,150 Climbing Atlanta Center
Thu 09:12:30 AM 33.8011 -85.4239 282° West 423 487 25,000 1,150 Climbing Atlanta Center
Thu 09:13:30 AM 33.8264 -85.5717 282° West 445 512 26,100 1,200 Climbing Atlanta Center
Thu 09:14:30 AM 33.8600 -85.7175 286° West 451 519 27,400 1,200 Climbing Atlanta Center
Thu 09:15:30 AM 33.9061 -85.8533 292° West 456 525 28,500 1,100 Climbing Atlanta Center
Thu 09:16:30 AM 33.9497 -86.0022 289° West 456 525 29,600 1,000 Climbing Atlanta Center
Thu 09:17:30 AM 33.9975 -86.1511 291° West 462 532 30,500 800 Climbing Atlanta Center
Thu 09:18:30 AM 34.0386 -86.3025 288° West 473 544 31,200 850 Climbing Atlanta Center
Thu 09:19:30 AM 34.0814 -86.4567 289° West 478 550 32,200 1,050 Climbing Atlanta Center
Thu 09:20:30 AM 34.1264 -86.6108 289° West 483 556 33,300 900 Climbing Atlanta Center
Thu 09:21:30 AM 34.1689 -86.7653 288° West 483 556 34,000 328 Climbing Atlanta Center
Thu 09:22:38 AM 34.2222 -86.9661 288° West 513 590 34,000  Level Memphis Center
Thu 09:23:38 AM 34.2639 -87.1178 288° West 495 570 34,000  Level Memphis Center
Thu 09:24:38 AM 34.3072 -87.2594 290° West 476 548 34,000  Level Memphis Center
Thu 09:25:38 AM 34.3486 -87.4139 288° West 471 542 34,000  Level Memphis Center
Thu 09:26:38 AM 34.3897 -87.5683 288° West 478 550 34,000  Level Memphis Center
Thu 09:27:38 AM 34.4303 -87.7158 288° West 478 550 34,000  Level Memphis Center
Thu 09:28:38 AM 34.4733 -87.8681 289° West 478 550 34,000  Level Memphis Center
Thu 09:29:38 AM 34.5072 -88.0056 287° West 478 550 34,000  Level Memphis Center
Thu 09:30:38 AM 34.5522 -88.1808 287° West 485 558 34,000  Level Memphis Center
Thu 09:31:38 AM 34.5922 -88.3339 288° West 490 564 34,000  Level Memphis Center
Thu 09:32:38 AM 34.6322 -88.4867 288° West 490 564 34,000  Level Memphis Center
Thu 09:33:38 AM 34.6697 -88.6172 289° West 474 545 34,000  Level Memphis Center
Thu 09:34:38 AM 34.7072 -88.7706 287° West 469 540 34,000  Level Memphis Center
Thu 09:35:38 AM 34.7508 -88.9342 288° West 469 540 34,000  Level Memphis Center
Thu 09:36:38 AM 34.7900 -89.0878 287° West 476 548 34,000  Level Memphis Center
Thu 09:37:38 AM 34.8292 -89.2389 288° West 471 542 34,000  Level Memphis Center
Thu 09:38:38 AM 34.8681 -89.3928 287° West 477 549 34,000  Level Memphis Center
Thu 09:39:38 AM 34.9086 -89.5417 288° West 477 549 34,000  Level Memphis Center
Thu 09:40:38 AM 34.9428 -89.6706 288° West 483 556 34,000  Level Memphis Center
Thu 09:41:38 AM 34.9917 -89.8653 287° West 504 580 34,000  Level Memphis Center
Thu 09:42:38 AM 35.0278 -90.0222 286° West 497 572 34,000  Level Memphis Center
Thu 09:43:38 AM 35.0614 -90.1769 285° West 486 559 34,000  Level Memphis Center
Thu 09:44:38 AM 35.0969 -90.3342 285° West 479 551 34,000  Level Memphis Center
Thu 09:45:38 AM 35.1344 -90.4917 286° West 473 544 34,000  Level Memphis Center
Thu 09:46:38 AM 35.1678 -90.6492 285° West 473 544 34,000  Level Memphis Center
Thu 09:47:38 AM 35.2028 -90.8044 285° West 468 539 34,000  Level Memphis Center
Thu 09:48:38 AM 35.2375 -90.9622 285° West 473 544 34,000  Level Memphis Center
Thu 09:49:38 AM 35.2681 -91.0972 286° West 473 544 34,000  Level Memphis Center
Thu 09:50:38 AM 35.3025 -91.2553 285° West 473 544 34,000  Level Memphis Center
Thu 09:51:38 AM 35.3367 -91.4108 285° West 473 544 34,000  Level Memphis Center
Thu 09:52:38 AM 35.3686 -91.5692 284° West 473 544 34,000  Level Memphis Center
Thu 09:53:38 AM 35.4047 -91.7250 286° West 473 544 34,000  Level Memphis Center
Thu 09:54:38 AM 35.4342 -91.8808 283° West 473 544 34,000  Level Memphis Center
Thu 09:55:38 AM 35.4697 -92.0369 286° West 473 544 34,000  Level Memphis Center
Thu 09:56:38 AM 35.5028 -92.1958 284° West 473 544 34,000  Level Memphis Center
Thu 09:57:38 AM 35.5358 -92.3497 285° West 473 544 34,000  Level Memphis Center
Thu 09:58:38 AM 35.5667 -92.5061 284° West 473 544 34,000  Level Memphis Center
Thu 09:59:38 AM 35.5994 -92.6628 284° West 473 544 34,000  Level Memphis Center
Thu 10:00:38 AM 35.6319 -92.8194 284° West 482 555 34,000  Level Memphis Center
Thu 10:01:38 AM 35.6678 -93.0019 284° West 482 555 34,000  Level Memphis Center
Thu 10:02:38 AM 35.6958 -93.1433 284° West 464 534 34,000  Level Memphis Center
Thu 10:03:38 AM 35.7300 -93.2981 285° West 459 528 34,000  Level Memphis Center
Thu 10:04:38 AM 35.7575 -93.4472 283° West 459 528 34,000  Level Memphis Center
Thu 10:05:38 AM 35.7892 -93.6019 284° West 459 528 34,000  Level Memphis Center
Thu 10:06:38 AM 35.8183 -93.7542 283° West 459 528 34,000  Level Memphis Center
Thu 10:08:47 AM 35.8806 -94.0578 284° West 460 529 34,000  Level Kansas City Center
Thu 10:09:49 AM 35.9575 -94.2164 301° West 447 514 34,000  Level Kansas City Center
Thu 10:10:50 AM 36.0211 -94.3525 300° West 454 522 34,000  Level Kansas City Center
Thu 10:11:52 AM 36.0814 -94.4872 299° West 453 521 34,000  Level Kansas City Center
Thu 10:12:53 AM 36.1436 -94.6214 300° West 450 518 34,000  Level Kansas City Center
Thu 10:13:55 AM 36.2039 -94.7553 299° West 449 517 34,000 290 Level Kansas City Center
Thu 10:14:57 AM 36.2636 -94.8900 299° West 447 514 34,600 683 Climbing Kansas City Center
Thu 10:15:58 AM 36.3244 -95.0244 299° West 447 514 35,400 683 Climbing Kansas City Center
Thu 10:17:00 AM 36.3775 -95.1767 293° West 452 520 36,000 293 Climbing Kansas City Center
Thu 10:18:01 AM 36.3725 -95.3356 268° West 463 533 36,000  Level Kansas City Center
Thu 10:19:03 AM 36.3619 -95.4936 265° West 463 533 36,000  Level Kansas City Center
Thu 10:20:05 AM 36.3503 -95.6572 265° West 471 542 36,000  Level Kansas City Center
Thu 10:21:06 AM 36.3389 -95.8242 265° West 471 542 36,000  Level Kansas City Center
Thu 10:22:08 AM 36.3250 -96.0181 265° West 470 541 36,000  Level Kansas City Center
Thu 10:23:10 AM 36.3125 -96.1800 265° West 470 541 36,000  Level Kansas City Center
Thu 10:24:11 AM 36.3019 -96.3400 265° West 468 539 36,000  Level Kansas City Center
Thu 10:25:13 AM 36.2892 -96.5006 264° West 467 537 36,000  Level Kansas City Center
Thu 10:26:14 AM 36.2758 -96.6606 264° West 467 537 36,000  Level Kansas City Center
Thu 10:27:16 AM 36.2625 -96.8406 265° West 466 536 36,000  Level Kansas City Center
Thu 10:28:18 AM 36.2500 -96.9997 264° West 467 537 36,000  Level Kansas City Center
Thu 10:29:19 AM 36.2356 -97.1578 264° West 466 536 36,000  Level Kansas City Center
Thu 10:30:21 AM 36.2233 -97.3172 265° West 467 537 36,000  Level Kansas City Center
Thu 10:31:23 AM 36.2100 -97.4769 264° West 470 541 36,000  Level Kansas City Center
Thu 10:32:24 AM 36.1950 -97.6353 263° West 468 539 36,000  Level Kansas City Center
Thu 10:33:26 AM 36.1822 -97.7953 264° West 469 540 36,000  Level Kansas City Center
Thu 10:34:28 AM 36.1644 -97.9878 264° West 470 541 36,000  Level Kansas City Center
Thu 10:35:29 AM 36.1494 -98.1497 264° West 471 542 36,000  Level Kansas City Center
Thu 10:36:31 AM 36.1342 -98.3117 263° West 472 543 36,000  Level Kansas City Center
Thu 10:37:32 AM 36.1194 -98.4733 264° West 473 544 36,000  Level Kansas City Center
Thu 10:38:34 AM 36.1036 -98.6344 263° West 471 542 36,000  Level Kansas City Center
Thu 10:39:36 AM 36.0897 -98.7889 264° West 471 542 36,000  Level Kansas City Center
Thu 10:40:37 AM 36.0692 -98.9828 263° West 474 545 36,000  Level Kansas City Center
Thu 10:41:39 AM 36.0533 -99.1425 263° West 473 544 36,000  Level Kansas City Center
Thu 10:42:41 AM 36.0381 -99.3047 263° West 475 547 36,000  Level Kansas City Center
Thu 10:43:43 AM 36.0208 -99.4614 262° West 476 548 36,000  Level Kansas City Center
Thu 10:44:44 AM 36.0042 -99.6236 263° West 475 547 36,000  Level Kansas City Center
Thu 10:45:46 AM 35.9867 -99.7864 262° West 477 549 36,000  Level Kansas City Center
Thu 10:46:48 AM 35.9661 -99.9808 263° West 477 549 36,000  Level Kansas City Center
Thu 10:47:50 AM 35.9489 -100.1433 263° West 477 549 36,000  Level Kansas City Center
Thu 10:48:51 AM 35.9314 -100.3050 262° West 475 547 36,000  Level Kansas City Center
Thu 10:49:53 AM 35.9150 -100.4486 262° West 474 545 36,000  Level Kansas City Center
Thu 10:50:55 AM 35.8939 -100.6419 262° West 475 547 36,000  Level Kansas City Center
Thu 10:51:57 AM 35.8742 -100.8019 261° West 475 547 36,000  Level Kansas City Center
Thu 10:52:58 AM 35.8564 -100.9617 262° West 474 545 36,000  Level Kansas City Center
Thu 10:54:00 AM 35.8375 -101.1206 262° West 472 543 36,000  Level Kansas City Center
Thu 10:55:02 AM 35.8200 -101.2781 262° West 469 540 36,000  Level Kansas City Center
Thu 10:56:12 AM 35.7978 -101.4642 262° West 464 534 36,000  Level Albuquerque Center
Thu 10:57:13 AM 35.7800 -101.6192 262° West 462 532 36,000  Level Albuquerque Center
Thu 10:58:15 AM 35.7583 -101.8061 262° West 464 534 36,000  Level Albuquerque Center
Thu 10:59:17 AM 35.7383 -101.9603 261° West 462 532 36,000  Level Albuquerque Center
Thu 11:00:19 AM 35.7250 -102.1161 264° West 462 532 36,000  Level Albuquerque Center
Thu 11:01:20 AM 35.7156 -102.2722 266° West 461 531 36,000  Level Albuquerque Center
Thu 11:02:22 AM 35.7083 -102.4275 267° West 459 528 36,000  Level Albuquerque Center
Thu 11:03:24 AM 35.6994 -102.5867 266° West 466 536 36,000  Level Albuquerque Center
Thu 11:04:26 AM 35.6886 -102.7753 266° West 464 534 36,000  Level Albuquerque Center
Thu 11:05:28 AM 35.6794 -102.9375 266° West 467 537 36,000  Level Albuquerque Center
Thu 11:06:30 AM 35.6678 -103.0994 265° West 471 542 36,000  Level Albuquerque Center
Thu 11:07:31 AM 35.6589 -103.2603 266° West 470 541 36,000  Level Albuquerque Center
Thu 11:08:33 AM 35.6481 -103.4228 265° West 473 544 36,000  Level Albuquerque Center
Thu 11:09:35 AM 35.6358 -103.5844 265° West 473 544 36,000  Level Albuquerque Center
Thu 11:10:37 AM 35.6256 -103.7458 266° West 473 544 36,000  Level Albuquerque Center
Thu 11:11:39 AM 35.6153 -103.9081 266° West 474 545 36,000  Level Albuquerque Center
Thu 11:12:41 AM 35.6014 -104.0950 265° West 472 543 36,000  Level Albuquerque Center
Thu 11:13:43 AM 35.5900 -104.2553 265° West 472 543 36,000  Level Albuquerque Center
Thu 11:14:45 AM 35.5781 -104.4158 265° West 473 544 36,000  Level Albuquerque Center
Thu 11:15:46 AM 35.5661 -104.5769 265° West 474 545 36,000  Level Albuquerque Center
Thu 11:16:48 AM 35.5536 -104.7378 265° West 473 544 36,000  Level Albuquerque Center
Thu 11:17:50 AM 35.5406 -104.8992 264° West 472 543 36,000  Level Albuquerque Center
Thu 11:18:52 AM 35.5256 -105.0892 265° West 475 547 36,000  Level Albuquerque Center
Thu 11:19:54 AM 35.5128 -105.2500 264° West 471 542 36,000  Level Albuquerque Center
Thu 11:20:56 AM 35.4978 -105.4125 264° West 475 547 36,000  Level Albuquerque Center
Thu 11:21:58 AM 35.4864 -105.5725 265° West 471 542 36,000  Level Albuquerque Center
Thu 11:22:59 AM 35.4731 -105.7347 264° West 472 543 36,000  Level Albuquerque Center
Thu 11:24:01 AM 35.4578 -105.8911 263° West 477 549 36,000  Level Albuquerque Center
Thu 11:25:03 AM 35.4456 -106.0525 265° West 477 549 36,000  Level Albuquerque Center
Thu 11:26:05 AM 35.4292 -106.2467 264° West 479 551 36,000  Level Albuquerque Center
Thu 11:27:07 AM 35.4147 -106.4086 264° West 480 552 36,000  Level Albuquerque Center
Thu 11:28:09 AM 35.4000 -106.5689 264° West 479 551 36,000  Level Albuquerque Center
Thu 11:29:10 AM 35.3864 -106.7283 264° West 476 548 36,000  Level Albuquerque Center
Thu 11:30:12 AM 35.3692 -106.8975 263° West 475 547 36,000  Level Albuquerque Center
Thu 11:31:14 AM 35.3517 -107.0767 263° West 474 545 36,000  Level Albuquerque Center
Thu 11:32:16 AM 35.3358 -107.2361 263° West 474 545 36,000  Level Albuquerque Center
Thu 11:33:18 AM 35.3200 -107.3964 263° West 477 549 36,000  Level Albuquerque Center
Thu 11:34:20 AM 35.3031 -107.5636 263° West 473 544 36,000  Level Albuquerque Center
Thu 11:35:21 AM 35.2858 -107.7158 262° West 472 543 36,000  Level Albuquerque Center
Thu 11:36:23 AM 35.2686 -107.8931 263° West 469 540 36,000  Level Albuquerque Center
Thu 11:37:25 AM 35.2528 -108.0453 263° West 469 540 36,000  Level Albuquerque Center
Thu 11:38:27 AM 35.2344 -108.2228 263° West 470 541 36,000  Level Albuquerque Center
Thu 11:39:28 AM 35.2186 -108.3756 263° West 471 542 36,000  Level Albuquerque Center
Thu 11:40:30 AM 35.2022 -108.5297 263° West 473 544 36,000  Level Albuquerque Center
Thu 11:41:31 AM 35.1825 -108.7097 262° West 475 547 36,000  Level Albuquerque Center
Thu 11:42:33 AM 35.1653 -108.8636 262° West 475 547 36,000  Level Albuquerque Center
Thu 11:43:35 AM 35.1453 -109.0425 262° West 475 547 36,000  Level Albuquerque Center
Thu 11:44:36 AM 35.1275 -109.1975 262° West 477 549 36,000  Level Albuquerque Center
Thu 11:45:38 AM 35.1100 -109.3503 262° West 476 548 36,000  Level Albuquerque Center
Thu 11:46:39 AM 35.0894 -109.5294 262° West 475 547 36,000  Level Albuquerque Center
Thu 11:47:41 AM 35.0717 -109.6814 262° West 473 544 36,000  Level Albuquerque Center
Thu 11:48:43 AM 35.0511 -109.8592 262° West 473 544 36,000  Level Albuquerque Center
Thu 11:49:44 AM 35.0339 -110.0125 262° West 474 545 36,000  Level Albuquerque Center
Thu 11:50:46 AM 35.0142 -110.1639 261° West 471 542 36,000  Level Albuquerque Center
Thu 11:51:47 AM 34.9922 -110.3392 261° West 469 540 36,000  Level Albuquerque Center
Thu 11:52:49 AM 34.9717 -110.4886 261° West 468 539 36,000  Level Albuquerque Center
Thu 11:53:50 AM 34.9478 -110.6650 261° West 470 541 36,000  Level Albuquerque Center
Thu 11:54:52 AM 34.9292 -110.8047 261° West 468 539 36,000  Level Albuquerque Center
Thu 11:55:53 AM 34.9092 -110.9644 261° West 467 537 36,000  Level Albuquerque Center
Thu 11:56:55 AM 34.8886 -111.1161 261° West 468 539 36,000  Level Albuquerque Center
Thu 11:57:56 AM 34.8647 -111.3033 261° West 470 541 36,000  Level Albuquerque Center
Thu 11:58:58 AM 34.8436 -111.4575 261° West 466 536 36,000  Level Albuquerque Center
Thu 12:00:00 PM 34.8225 -111.6125 261° West 468 539 36,000  Level Albuquerque Center
Thu 12:01:01 PM 34.8011 -111.7758 261° West 466 536 36,000  Level Albuquerque Center
Thu 12:02:03 PM 34.7797 -111.9317 261° West 467 537 36,000  Level Albuquerque Center
Thu 12:03:04 PM 34.7572 -112.0872 260° West 469 540 36,000  Level Albuquerque Center
Thu 12:04:06 PM 34.7372 -112.2328 261° West 470 541 36,000  Level Albuquerque Center
Thu 12:05:07 PM 34.7133 -112.3994 260° West 470 541 36,000  Level Albuquerque Center
Thu 12:06:09 PM 34.6914 -112.5564 260° West 471 542 36,000  Level Albuquerque Center
Thu 12:07:10 PM 34.6756 -112.7144 263° West 472 543 36,000  Level Albuquerque Center
Thu 12:08:12 PM 34.6519 -112.9022 261° West 470 541 36,000  Level Albuquerque Center
Thu 12:09:14 PM 34.6331 -113.0597 262° West 471 542 36,000  Level Albuquerque Center
Thu 12:10:15 PM 34.6131 -113.2161 261° West 471 542 36,000  Level Albuquerque Center
Thu 12:11:17 PM 34.5947 -113.3722 262° West 470 541 36,000  Level Albuquerque Center
Thu 12:12:19 PM 34.5750 -113.5289 261° West 470 541 36,000  Level Albuquerque Center
Thu 12:13:20 PM 34.5517 -113.6908 260° West 473 544 36,000  Level Albuquerque Center
Thu 12:14:22 PM 34.5194 -113.8453 256° West 472 543 36,000  Level Albuquerque Center
Thu 12:15:23 PM 34.4942 -114.0014 259° West 471 542 36,000  Level Albuquerque Center
Thu 12:16:25 PM 34.4661 -114.1875 260° West 469 540 36,000  Level Albuquerque Center
Thu 12:17:27 PM 34.4397 -114.3425 258° West 469 540 36,000  Level Albuquerque Center
Thu 12:18:28 PM 34.4156 -114.4969 259° West 467 537 36,000  Level Albuquerque Center
Thu 12:19:43 PM 34.3839 -114.6931 259° West 467 537 36,000  Level Los Angeles Center
Thu 12:20:45 PM 34.3575 -114.8467 258° West 469 540 36,000  Level Los Angeles Center
Thu 12:21:47 PM 34.3322 -114.9997 259° West 466 536 36,000  Level Los Angeles Center
Thu 12:22:49 PM 34.3064 -115.1531 259° West 468 539 36,000  Level Los Angeles Center
Thu 12:23:51 PM 34.2803 -115.3072 258° West 468 539 36,000  Level Los Angeles Center
Thu 12:24:53 PM 34.2536 -115.4606 258° West 470 541 36,000  Level Los Angeles Center
Thu 12:25:55 PM 34.2208 -115.6428 258° West 466 536 36,000 -435 Level Los Angeles Center
Thu 12:26:57 PM 34.1936 -115.7961 258° West 467 537 35,100 -1,742 Descending Los Angeles Center
Thu 12:27:59 PM 34.1664 -115.9556 258° West 475 547 32,400 -2,129 Descending Los Angeles Center
Thu 12:29:01 PM 34.1364 -116.1208 258° West 499 574 30,700 -1,548 Descending Los Angeles Center
Thu 12:30:03 PM 34.1086 -116.2783 258° West 495 570 29,200 -1,920 Descending Los Angeles Center
Thu 12:31:06 PM 34.0769 -116.4475 257° West 444 511 26,700 -2,112 Descending Los Angeles Center
Thu 12:32:08 PM 34.0531 -116.5814 258° West 417 480 24,800 -1,839 Descending Los Angeles Center
Thu 12:33:10 PM 34.0289 -116.7119 257° West 404 465 22,900 -1,790 Descending Los Angeles Center
Thu 12:34:12 PM 34.0056 -116.8375 257° West 392 451 21,100 -1,806 Descending Los Angeles Center
Thu 12:34:43 PM 33.9833 -116.9167 251° West 374 430 20,100 -1,846 Descending Southern California TRACON
Thu 12:35:43 PM 33.9667 -117.0333 260° West 341 392 18,300 -1,632 Descending Southern California TRACON
Thu 12:36:37 PM 33.9667 -117.1333 270° West 330 380 17,000 -1,350 Descending Southern California TRACON
Thu 12:37:43 PM 34.0333 -117.2167 314° West 338 389 15,600 -1,381 Descending Southern California TRACON
Thu 12:38:43 PM 34.0500 -117.3167 281° West 326 375 14,100 -1,450 Descending Southern California TRACON
Thu 12:39:43 PM 34.0500 -117.4333 270° West 317 365 12,700 -1,200 Descending Southern California TRACON
Thu 12:40:43 PM 34.0333 -117.5333 259° West 296 341 11,700 -800 Descending Southern California TRACON
Thu 12:41:43 PM 34.0333 -117.6333 270° West 309 356 11,100 -900 Descending Southern California TRACON
Thu 12:42:43 PM 34.0167 -117.7333 259° West 290 334 9,900 -1,350 Descending Southern California TRACON
Thu 12:43:43 PM 34.0167 -117.8333 270° West 297 342 8,400 -1,158 Descending Southern California TRACON
Thu 12:45:34 PM 33.9922 -117.9969 260° West 270 311 6,600 -1,075 Descending Los Angeles Center
Thu 12:46:36 PM 33.9861 -118.0731 264° West 237 273 5,300 -1,113 Descending Los Angeles Center
Thu 12:47:38 PM 33.9794 -118.1392 263° West 209 241 4,300 -1,016 Descending Los Angeles Center
Thu 12:48:40 PM 33.9722 -118.2092 263° West 183 211 3,200 -1,065 Descending Los Angeles Center

Login

Don't have an account? Register now (free) for customized features, flight alerts, and more!